createdAt,value
2022-12-22T00:01:49.818Z,5.47
2022-12-22T00:04:33.077Z,5.82
2022-12-22T00:07:15.700Z,5.60
2022-12-22T00:09:58.341Z,5.78
2022-12-22T00:12:42.934Z,6.13
2022-12-22T00:15:32.760Z,5.10
2022-12-22T00:18:15.823Z,5.90
2022-12-22T00:20:58.542Z,7.03
2022-12-22T00:23:41.165Z,6.90
2022-12-22T00:26:24.169Z,5.63
2022-12-22T00:29:06.968Z,5.47
2022-12-22T00:31:52.278Z,4.72
2022-12-22T00:34:37.110Z,6.90
2022-12-22T00:37:19.946Z,6.07
2022-12-22T00:40:02.520Z,5.25
2022-12-22T00:42:45.499Z,5.40
2022-12-22T00:45:28.363Z,6.32
2022-12-22T00:48:15.326Z,6.43
2022-12-22T00:50:58.096Z,7.45
2022-12-22T00:53:41.163Z,5.60
2022-12-22T00:56:24.573Z,5.28
2022-12-22T00:59:10.712Z,4.50
2022-12-22T01:01:53.439Z,4.82
2022-12-22T01:04:38.917Z,4.85
2022-12-22T01:07:21.651Z,4.80
2022-12-22T01:10:07.837Z,4.32
2022-12-22T01:12:52.836Z,5.00
2022-12-22T01:15:36.540Z,5.93
2022-12-22T01:18:20.273Z,5.32
2022-12-22T01:21:06.663Z,4.43
2022-12-22T01:23:49.365Z,7.13
2022-12-22T01:26:32.138Z,5.78
2022-12-22T01:29:14.827Z,6.25
2022-12-22T01:31:57.604Z,6.82
2022-12-22T01:34:40.223Z,8.35
2022-12-22T01:37:25.499Z,6.50
2022-12-22T01:40:08.198Z,6.68
2022-12-22T01:42:51.268Z,7.88
2022-12-22T01:45:38.804Z,6.78
2022-12-22T01:51:04.912Z,5.80
2022-12-22T01:53:50.659Z,8.30
2022-12-22T01:56:33.350Z,7.40
2022-12-22T01:59:19.348Z,8.93
2022-12-22T02:02:02.121Z,5.57
2022-12-22T02:04:50.589Z,6.93
2022-12-22T02:07:46.780Z,6.28
2022-12-22T02:10:45.226Z,5.80
2022-12-22T02:13:39.494Z,6.90
2022-12-22T02:16:29.104Z,6.57
2022-12-22T02:19:17.951Z,6.57
2022-12-22T02:22:08.964Z,7.93
2022-12-22T02:24:56.468Z,8.02
2022-12-22T02:30:26.091Z,7.65
2022-12-22T02:33:10.127Z,7.35
2022-12-22T02:36:00.984Z,9.40
2022-12-22T02:38:53.150Z,8.10
2022-12-22T02:41:45.843Z,7.32
2022-12-22T02:44:41.658Z,8.10
2022-12-22T02:47:33.204Z,8.38
2022-12-22T02:50:24.249Z,7.07
2022-12-22T02:53:08.330Z,7.78
2022-12-22T02:55:51.011Z,9.02
2022-12-22T02:58:34.957Z,7.90
2022-12-22T03:01:21.758Z,7.05
2022-12-22T03:04:04.937Z,7.75
2022-12-22T03:06:47.673Z,7.93
2022-12-22T03:09:30.349Z,7.20
2022-12-22T03:12:13.009Z,8.27
2022-12-22T03:14:55.635Z,7.88
2022-12-22T03:17:40.877Z,7.72
2022-12-22T03:20:24.624Z,7.68
2022-12-22T03:23:07.293Z,8.90
2022-12-22T03:25:49.947Z,8.68
2022-12-22T03:28:20.187Z,6.78
2022-12-22T03:30:57.205Z,9.82
2022-12-22T03:33:30.759Z,8.75
2022-12-22T03:36:02.344Z,8.60
2022-12-22T03:38:32.825Z,7.93
2022-12-22T03:41:03.137Z,8.63
2022-12-22T03:43:45.846Z,9.35
2022-12-22T03:46:33.638Z,8.55
2022-12-22T03:49:13.713Z,8.68
2022-12-22T03:51:46.598Z,8.30
2022-12-22T03:54:19.098Z,8.45
2022-12-22T03:56:50.477Z,8.10
2022-12-22T03:59:21.184Z,8.43
2022-12-22T04:01:53.568Z,8.70
2022-12-22T04:04:29.348Z,9.48
2022-12-22T04:06:59.681Z,8.70
2022-12-22T04:09:30.059Z,7.60
2022-12-22T04:12:12.665Z,8.32
2022-12-22T04:14:43.033Z,9.80
2022-12-22T04:17:13.329Z,8.57
2022-12-22T04:19:46.616Z,9.57
2022-12-22T04:22:16.791Z,8.73
2022-12-22T04:24:46.976Z,8.75
2022-12-22T04:27:17.747Z,8.85
2022-12-22T04:29:48.161Z,8.05
2022-12-22T04:32:18.527Z,8.02
2022-12-22T04:34:51.477Z,8.40
2022-12-22T04:37:21.705Z,8.43
2022-12-22T04:39:51.906Z,8.05
2022-12-22T04:42:22.069Z,9.55
2022-12-22T04:44:53.033Z,9.77
2022-12-22T04:47:23.273Z,9.52
2022-12-22T04:49:56.626Z,7.80
2022-12-22T04:52:30.130Z,8.77
2022-12-22T04:55:00.373Z,11.18
2022-12-22T04:57:33.216Z,8.80
2022-12-22T05:00:05.818Z,9.52
2022-12-22T05:02:36.247Z,8.60
2022-12-22T05:05:10.351Z,8.60
2022-12-22T05:07:40.683Z,8.90
2022-12-22T05:10:12.871Z,9.38
2022-12-22T05:12:58.474Z,9.77
2022-12-22T05:15:30.630Z,9.85
2022-12-22T05:18:01.985Z,9.68
2022-12-22T05:20:34.929Z,9.38
2022-12-22T05:23:05.211Z,9.05
2022-12-22T05:25:35.831Z,8.82
2022-12-22T05:28:06.412Z,8.75
2022-12-22T05:30:36.773Z,9.10
2022-12-22T05:33:07.070Z,8.75
2022-12-22T05:35:39.942Z,9.77
2022-12-22T05:38:10.200Z,8.23
2022-12-22T05:40:40.541Z,9.18
2022-12-22T05:43:10.784Z,10.20
2022-12-22T05:45:41.225Z,8.60
2022-12-22T05:48:11.520Z,9.23
2022-12-22T05:50:44.407Z,8.27
2022-12-22T05:53:14.634Z,8.90
2022-12-22T05:55:44.979Z,8.05
2022-12-22T05:58:15.276Z,9.68
2022-12-22T06:00:45.601Z,8.75
2022-12-22T06:03:15.891Z,9.70
2022-12-22T06:05:48.762Z,9.38
2022-12-22T06:08:19.281Z,8.93
2022-12-22T06:10:49.565Z,10.40
2022-12-22T06:13:20.685Z,8.90
2022-12-22T06:15:51.764Z,9.25
2022-12-22T06:18:22.069Z,9.50
2022-12-22T06:20:56.979Z,10.82
2022-12-22T06:23:27.237Z,9.02
2022-12-22T06:25:58.881Z,9.68
2022-12-22T06:28:29.812Z,9.85
2022-12-22T06:31:00.345Z,10.23
2022-12-22T06:33:30.599Z,8.95
2022-12-22T06:36:07.861Z,8.00
2022-12-22T06:38:38.565Z,8.57
2022-12-22T06:41:09.064Z,9.23
2022-12-22T06:43:36.676Z,8.93
2022-12-22T06:46:07.045Z,8.68
2022-12-22T06:48:37.307Z,8.32
2022-12-22T06:51:10.158Z,8.88
2022-12-22T06:53:40.422Z,9.15
2022-12-22T06:56:11.365Z,9.32
2022-12-22T06:58:41.670Z,8.70
2022-12-22T07:01:11.905Z,10.40
2022-12-22T07:03:42.213Z,8.57
2022-12-22T07:06:15.130Z,9.85
2022-12-22T07:08:45.651Z,7.57
2022-12-22T07:11:15.956Z,11.23
2022-12-22T07:13:47.103Z,7.40
2022-12-22T07:16:18.645Z,9.27
2022-12-22T07:18:49.436Z,8.23
2022-12-22T07:21:22.330Z,8.20
2022-12-22T07:23:52.706Z,7.15
2022-12-22T07:26:22.916Z,6.93
2022-12-22T07:28:53.160Z,8.00
2022-12-22T07:31:23.435Z,8.27
2022-12-22T07:33:54.237Z,8.73
2022-12-22T07:36:27.083Z,9.75
2022-12-22T07:38:57.495Z,7.82
2022-12-22T07:41:40.207Z,8.15
2022-12-22T07:44:10.620Z,7.93
2022-12-22T07:46:42.847Z,9.07
2022-12-22T07:49:26.410Z,8.55
2022-12-22T07:52:00.160Z,8.20
2022-12-22T07:54:35.244Z,8.43
2022-12-22T07:57:08.469Z,8.45
2022-12-22T07:59:38.742Z,8.77
2022-12-22T08:02:09.358Z,8.73
2022-12-22T08:04:39.643Z,10.00
2022-12-22T08:07:12.879Z,7.55
2022-12-22T08:09:43.349Z,8.88
2022-12-22T08:12:13.948Z,8.85
2022-12-22T08:14:46.012Z,10.32
2022-12-22T08:17:16.211Z,10.40
2022-12-22T08:19:46.587Z,10.68
2022-12-22T08:22:19.696Z,8.40
2022-12-22T08:24:49.939Z,9.48
2022-12-22T08:27:27.592Z,9.45
2022-12-22T08:30:00.944Z,10.10
2022-12-22T08:32:31.646Z,7.80
2022-12-22T08:35:02.040Z,10.18
2022-12-22T08:37:41.340Z,11.05
2022-12-22T08:40:15.697Z,8.38
2022-12-22T08:42:46.487Z,9.13
2022-12-22T08:45:16.887Z,8.60
2022-12-22T08:47:47.139Z,9.80
2022-12-22T08:50:17.520Z,9.65
2022-12-22T08:52:50.489Z,9.38
2022-12-22T08:55:21.041Z,10.07
2022-12-22T08:57:56.232Z,9.23
2022-12-22T09:00:27.427Z,9.45
2022-12-22T09:02:57.782Z,8.63
2022-12-22T09:05:28.189Z,7.82
2022-12-22T09:08:02.965Z,9.05
2022-12-22T09:10:33.454Z,7.97
2022-12-22T09:13:03.757Z,9.43
2022-12-22T09:15:34.072Z,7.97
2022-12-22T09:18:04.431Z,9.32
2022-12-22T09:20:34.933Z,8.40
2022-12-22T09:23:07.844Z,8.90
2022-12-22T09:25:38.220Z,8.57
2022-12-22T09:28:10.657Z,8.98
2022-12-22T09:30:40.976Z,9.43
2022-12-22T09:33:11.751Z,9.27
2022-12-22T09:35:44.333Z,9.60
2022-12-22T09:38:17.240Z,8.68
2022-12-22T09:40:47.535Z,8.75
2022-12-22T09:43:20.111Z,7.95
2022-12-22T09:45:50.751Z,8.98
2022-12-22T09:48:21.886Z,7.88
2022-12-22T09:50:52.165Z,8.20
2022-12-22T09:53:26.713Z,8.13
2022-12-22T09:55:57.067Z,8.00
2022-12-22T09:58:30.498Z,7.63
2022-12-22T10:01:12.985Z,8.52
2022-12-22T10:03:48.703Z,8.93
2022-12-22T10:06:24.078Z,7.65
2022-12-22T10:08:57.597Z,8.68
2022-12-22T10:11:29.054Z,7.75
2022-12-22T10:13:59.338Z,9.18
2022-12-22T10:16:32.278Z,9.95
2022-12-22T10:19:11.784Z,8.88
2022-12-22T10:21:46.873Z,9.52
2022-12-22T10:24:28.992Z,9.13
2022-12-22T10:27:01.365Z,8.02
2022-12-22T10:29:32.577Z,8.65
2022-12-22T10:32:05.591Z,9.23
2022-12-22T10:34:36.155Z,9.73
2022-12-22T10:37:08.687Z,8.32
2022-12-22T10:39:41.861Z,8.05
2022-12-22T10:42:15.476Z,9.20
2022-12-22T10:44:49.307Z,8.60
2022-12-22T10:47:24.144Z,8.93
2022-12-22T10:52:32.153Z,8.23
2022-12-22T10:55:20.941Z,8.85
2022-12-22T10:57:51.717Z,8.05
2022-12-22T11:00:28.630Z,9.52
2022-12-22T11:05:30.151Z,8.27
2022-12-22T11:08:03.873Z,9.80
2022-12-22T11:10:41.503Z,8.70
2022-12-22T11:13:35.761Z,10.23
2022-12-22T11:16:11.148Z,9.23
2022-12-22T11:19:06.868Z,9.07
2022-12-22T11:21:47.619Z,8.63
2022-12-22T11:24:33.048Z,9.00
2022-12-22T11:27:19.524Z,7.05
2022-12-22T11:30:12.247Z,8.82
2022-12-22T11:33:00.578Z,9.77
2022-12-22T11:35:44.502Z,8.80
2022-12-22T11:38:23.571Z,11.13
2022-12-22T11:41:01.372Z,9.73
2022-12-22T11:43:45.879Z,11.27
2022-12-22T11:46:28.571Z,8.95
2022-12-22T11:49:15.284Z,9.73
2022-12-22T11:52:02.508Z,8.67
2022-12-22T11:54:51.835Z,6.50
2022-12-22T11:57:34.866Z,8.48
2022-12-22T12:00:14.073Z,7.45
2022-12-22T12:03:25.852Z,6.03
2022-12-22T12:06:13.271Z,6.60
2022-12-22T12:08:55.910Z,5.82
2022-12-22T12:11:34.195Z,4.97
2022-12-22T12:14:16.869Z,5.53
2022-12-22T12:16:55.474Z,5.60
2022-12-22T12:19:48.708Z,5.00
2022-12-22T12:22:33.219Z,5.00
2022-12-22T12:25:07.097Z,4.40
2022-12-22T12:27:56.212Z,4.85
2022-12-22T12:30:42.948Z,4.18
2022-12-22T12:33:20.087Z,3.43
2022-12-22T12:35:56.700Z,3.47
2022-12-22T12:43:59.325Z,3.47
2022-12-22T12:46:49.343Z,2.83
2022-12-22T12:49:57.801Z,2.28
2022-12-22T12:52:58.111Z,2.35
2022-12-22T12:55:33.730Z,2.53
2022-12-22T12:58:05.991Z,2.03
2022-12-22T13:00:56.951Z,2.22
2022-12-22T13:06:55.936Z,1.75
2022-12-22T13:09:49.973Z,1.80
2022-12-22T13:12:37.006Z,2.33
2022-12-22T13:15:32.497Z,1.40
2022-12-22T13:18:04.008Z,0.98
2022-12-22T13:20:37.345Z,1.05
2022-12-22T13:23:15.242Z,1.20
2022-12-22T13:25:53.164Z,0.90
2022-12-22T13:28:26.790Z,1.20
2022-12-22T13:31:02.924Z,1.10
2022-12-22T13:33:40.015Z,1.50
2022-12-22T13:36:19.297Z,1.20
2022-12-22T13:39:03.091Z,1.30
2022-12-22T13:41:35.322Z,1.10
2022-12-22T13:44:09.976Z,2.10
2022-12-22T13:46:41.594Z,1.00
2022-12-22T13:49:30.238Z,1.25
2022-12-22T13:52:06.860Z,1.67
2022-12-22T13:54:41.253Z,1.02
2022-12-22T13:57:18.915Z,1.10
2022-12-22T13:59:54.906Z,0.50
2022-12-22T14:02:25.748Z,0.38
2022-12-22T14:05:11.537Z,0.50
2022-12-22T14:07:41.982Z,0.47
2022-12-22T14:10:16.707Z,1.42
2022-12-22T14:12:49.993Z,1.40
2022-12-22T14:15:22.709Z,0.68
2022-12-22T14:17:53.596Z,1.20
2022-12-22T14:20:29.247Z,1.10
2022-12-22T14:23:04.603Z,0.85
2022-12-22T14:25:39.976Z,0.60
2022-12-22T14:28:16.415Z,2.22
2022-12-22T14:30:50.369Z,0.70
2022-12-22T14:33:30.515Z,0.80
2022-12-22T14:36:18.445Z,0.80
2022-12-22T14:38:50.600Z,1.17
2022-12-22T14:41:46.898Z,0.65
2022-12-22T14:44:19.544Z,0.90
2022-12-22T14:47:04.863Z,0.80
2022-12-22T14:49:36.332Z,0.80
2022-12-22T14:52:10.856Z,0.50
2022-12-22T14:54:42.577Z,0.57
2022-12-22T14:57:20.196Z,0.63
2022-12-22T15:00:02.593Z,1.55
2022-12-22T15:02:39.699Z,1.60
2022-12-22T15:08:08.534Z,1.00
2022-12-22T15:10:42.841Z,1.95
2022-12-22T15:13:23.597Z,0.50
2022-12-22T15:15:53.995Z,0.98
2022-12-22T15:18:28.635Z,1.20
2022-12-22T15:21:01.863Z,1.50
2022-12-22T15:23:32.133Z,1.42
2022-12-22T15:26:02.357Z,0.95
2022-12-22T15:28:35.784Z,1.50
2022-12-22T15:31:07.636Z,0.82
2022-12-22T15:33:38.012Z,1.85
2022-12-22T15:36:12.427Z,2.20
2022-12-22T15:38:43.669Z,1.17
2022-12-22T15:41:13.883Z,1.15
2022-12-22T15:43:57.244Z,1.25
2022-12-22T15:46:28.414Z,1.45
2022-12-22T15:48:58.739Z,1.10
2022-12-22T15:51:31.178Z,1.38
2022-12-22T15:54:02.331Z,2.40
2022-12-22T15:56:35.865Z,0.90
2022-12-22T15:59:09.108Z,1.08
2022-12-22T16:01:39.483Z,1.20
2022-12-22T16:04:10.897Z,1.02
2022-12-22T16:06:41.618Z,1.10
2022-12-22T16:09:18.172Z,1.05
2022-12-22T16:11:48.559Z,1.38
2022-12-22T16:14:23.375Z,1.17
2022-12-22T16:16:53.951Z,2.40
2022-12-22T16:19:24.343Z,2.00
2022-12-22T16:21:56.584Z,0.98
2022-12-22T16:24:30.738Z,1.17
2022-12-22T16:27:01.613Z,1.52
2022-12-22T16:29:34.682Z,1.13
2022-12-22T16:32:18.591Z,1.80
2022-12-22T16:34:49.071Z,1.48
2022-12-22T16:37:19.380Z,1.45
2022-12-22T16:39:49.834Z,1.30
2022-12-22T16:45:18.967Z,1.13
2022-12-22T16:47:49.416Z,1.00
2022-12-22T16:50:22.909Z,1.33
2022-12-22T16:52:53.698Z,1.55
2022-12-22T16:55:25.219Z,1.20
2022-12-22T16:57:55.633Z,1.08
2022-12-22T17:00:32.196Z,0.77
2022-12-22T17:03:07.286Z,0.93
2022-12-22T17:05:44.510Z,0.90
2022-12-22T17:08:22.494Z,0.95
2022-12-22T17:10:53.780Z,1.40
2022-12-22T17:13:24.975Z,0.90
2022-12-22T17:15:58.064Z,1.10
2022-12-22T17:18:29.568Z,1.27
2022-12-22T17:21:04.915Z,1.20
2022-12-22T17:23:39.010Z,0.88
2022-12-22T17:26:12.119Z,1.67
2022-12-22T17:28:42.935Z,0.90
2022-12-22T17:31:19.913Z,1.48
2022-12-22T17:33:51.436Z,1.10
2022-12-22T17:36:37.312Z,1.42
2022-12-22T17:39:07.989Z,2.40
2022-12-22T17:41:38.335Z,1.40
2022-12-22T17:44:16.258Z,1.42
2022-12-22T17:46:51.331Z,2.33
2022-12-22T17:49:25.518Z,1.73
2022-12-22T17:51:57.133Z,2.05
2022-12-22T17:54:30.477Z,1.58
2022-12-22T17:57:06.462Z,1.70
2022-12-22T17:59:39.894Z,1.60
2022-12-22T18:02:23.052Z,1.80
2022-12-22T18:04:54.338Z,1.73
2022-12-22T18:07:27.354Z,1.85
2022-12-22T18:10:02.610Z,2.05
2022-12-22T18:12:32.862Z,2.13
2022-12-22T18:15:03.172Z,1.83
2022-12-22T18:17:36.344Z,1.77
2022-12-22T18:20:07.771Z,2.13
2022-12-22T18:22:38.074Z,3.05
2022-12-22T18:25:18.637Z,1.30
2022-12-22T18:27:49.388Z,2.15
2022-12-22T18:30:24.977Z,1.90
2022-12-22T18:32:59.311Z,2.20
2022-12-22T18:35:30.969Z,3.70
2022-12-22T18:38:01.767Z,2.25
2022-12-22T18:40:34.599Z,2.00
2022-12-22T18:43:05.663Z,2.63
2022-12-22T18:45:36.269Z,2.13
2022-12-22T18:48:09.626Z,1.70
2022-12-22T18:50:40.418Z,1.33
2022-12-22T18:53:21.372Z,2.22
2022-12-22T18:55:51.717Z,2.55
2022-12-22T18:58:22.154Z,1.30
2022-12-22T19:00:53.534Z,1.77
2022-12-22T19:03:29.410Z,1.92
2022-12-22T19:06:00.478Z,2.03
2022-12-22T19:08:31.555Z,1.60
2022-12-22T19:11:06.517Z,1.92
2022-12-22T19:13:38.640Z,2.00
2022-12-22T19:16:10.242Z,2.38
2022-12-22T19:18:43.505Z,1.48
2022-12-22T19:21:16.018Z,2.10
2022-12-22T19:23:46.861Z,1.63
2022-12-22T19:26:24.381Z,2.00
2022-12-22T19:28:57.129Z,1.85
2022-12-22T19:31:29.653Z,1.73
2022-12-22T19:34:05.918Z,2.15
2022-12-22T19:36:36.429Z,1.40
2022-12-22T19:39:06.957Z,2.00
2022-12-22T19:41:42.835Z,1.95
2022-12-22T19:44:21.085Z,2.67
2022-12-22T19:46:51.984Z,1.90
2022-12-22T19:49:27.496Z,2.13
2022-12-22T19:51:58.842Z,2.03
2022-12-22T19:54:29.125Z,2.90
2022-12-22T19:56:59.494Z,2.30
2022-12-22T19:59:39.142Z,2.20
2022-12-22T20:02:29.368Z,2.63
2022-12-22T20:05:02.915Z,2.60
2022-12-22T20:07:37.070Z,2.85
2022-12-22T20:10:07.798Z,3.00
2022-12-22T20:12:42.419Z,3.55
2022-12-22T20:15:18.692Z,2.80
2022-12-22T20:17:49.459Z,2.67
2022-12-22T20:20:24.303Z,2.83
2022-12-22T20:22:57.801Z,2.75
2022-12-22T20:25:30.210Z,2.83
2022-12-22T20:28:00.595Z,3.03
2022-12-22T20:30:33.789Z,2.10
2022-12-22T20:33:04.073Z,3.33
2022-12-22T20:35:38.227Z,3.35
2022-12-22T20:38:20.735Z,3.90
2022-12-22T20:40:54.093Z,3.88
2022-12-22T20:43:26.675Z,3.90
2022-12-22T20:46:03.397Z,3.97
2022-12-22T20:48:38.186Z,8.13
2022-12-22T20:51:15.649Z,3.80
2022-12-22T20:53:46.280Z,5.43
2022-12-22T20:56:23.829Z,4.75
2022-12-22T20:58:54.693Z,3.42
2022-12-22T21:01:25.223Z,3.83
2022-12-22T21:03:55.760Z,3.25
2022-12-22T21:06:30.608Z,2.45
2022-12-22T21:09:02.840Z,3.72
2022-12-22T21:11:34.568Z,3.78
2022-12-22T21:14:04.893Z,3.45
2022-12-22T21:16:35.603Z,3.45
2022-12-22T21:19:06.659Z,4.10
2022-12-22T21:21:40.983Z,4.15
2022-12-22T21:24:11.446Z,3.55
2022-12-22T21:26:45.421Z,3.58
2022-12-22T21:29:19.343Z,3.33
2022-12-22T21:31:49.621Z,3.70
2022-12-22T21:34:25.141Z,4.05
2022-12-22T21:37:02.728Z,3.60
2022-12-22T21:39:41.829Z,4.38
2022-12-22T21:42:16.494Z,4.40
2022-12-22T21:44:47.592Z,4.18
2022-12-22T21:47:21.245Z,4.35
2022-12-22T21:49:51.959Z,4.53
2022-12-22T21:52:24.792Z,4.47
2022-12-22T21:54:54.998Z,4.13
2022-12-22T21:57:25.861Z,5.72
2022-12-22T21:59:56.153Z,3.70
2022-12-22T22:02:27.649Z,4.13
2022-12-22T22:04:58.933Z,4.22
2022-12-22T22:07:31.809Z,3.45
2022-12-22T22:10:02.119Z,3.58
2022-12-22T22:12:37.289Z,5.80
2022-12-22T22:15:11.872Z,4.25
2022-12-22T22:17:46.167Z,3.50
2022-12-22T22:20:18.910Z,3.72
2022-12-22T22:22:53.347Z,4.28
2022-12-22T22:25:24.324Z,4.68
2022-12-22T22:27:55.025Z,3.58
2022-12-22T22:30:27.581Z,3.42
2022-12-22T22:32:58.705Z,4.28
2022-12-22T22:35:30.243Z,2.42
2022-12-22T22:38:03.143Z,2.67
2022-12-22T22:40:33.384Z,3.20
2022-12-22T22:43:03.662Z,2.90
2022-12-22T22:45:33.984Z,2.45
2022-12-22T22:48:10.468Z,3.13
2022-12-22T22:53:16.037Z,2.20
2022-12-22T22:55:46.298Z,2.30
2022-12-22T22:58:17.630Z,1.92
2022-12-22T23:00:47.955Z,1.90
2022-12-22T23:03:18.324Z,2.28
2022-12-22T23:05:48.725Z,2.60
2022-12-22T23:08:21.553Z,2.28
2022-12-22T23:10:52.174Z,2.08
2022-12-22T23:13:22.470Z,2.22
2022-12-22T23:15:57.159Z,2.30
2022-12-22T23:18:28.090Z,2.25
2022-12-22T23:21:00.982Z,1.67
2022-12-22T23:23:35.157Z,2.42
2022-12-22T23:26:06.098Z,2.13
2022-12-22T23:28:37.029Z,1.77
2022-12-22T23:31:07.942Z,2.60
2022-12-22T23:33:38.357Z,2.00
2022-12-22T23:36:09.478Z,2.15
2022-12-22T23:38:42.413Z,1.42
2022-12-22T23:41:14.892Z,1.95
2022-12-22T23:43:45.099Z,1.55
2022-12-22T23:46:17.745Z,1.85
2022-12-22T23:48:52.621Z,1.10
2022-12-22T23:51:23.695Z,1.20
2022-12-22T23:53:56.628Z,1.30
2022-12-22T23:56:27.216Z,1.20
2022-12-22T23:58:57.572Z,1.13
